sensor_id;sensor_type;location;lat;lon;timestamp;P1;durP1;ratioP1;P2;durP2;ratioP2
13849;SDS011;6995;52.618;13.488;2023-08-21T00:01:31;31.17;;;28.38;;
13849;SDS011;6995;52.618;13.488;2023-08-21T00:03:59;32.88;;;30.15;;
13849;SDS011;6995;52.618;13.488;2023-08-21T00:06:25;30.30;;;27.92;;
13849;SDS011;6995;52.618;13.488;2023-08-21T00:08:50;30.75;;;28.17;;
13849;SDS011;6995;52.618;13.488;2023-08-21T00:11:16;31.08;;;28.67;;
13849;SDS011;6995;52.618;13.488;2023-08-21T00:13:44;33.03;;;30.45;;
13849;SDS011;6995;52.618;13.488;2023-08-21T00:16:12;30.65;;;27.88;;
13849;SDS011;6995;52.618;13.488;2023-08-21T00:18:38;32.95;;;29.90;;
13849;SDS011;6995;52.618;13.488;2023-08-21T00:21:04;33.88;;;31.15;;
13849;SDS011;6995;52.618;13.488;2023-08-21T00:23:30;32.33;;;29.58;;
13849;SDS011;6995;52.618;13.488;2023-08-21T00:25:56;34.65;;;31.55;;
13849;SDS011;6995;52.618;13.488;2023-08-21T00:28:22;33.30;;;30.42;;
13849;SDS011;6995;52.618;13.488;2023-08-21T00:30:48;32.17;;;29.60;;
13849;SDS011;6995;52.618;13.488;2023-08-21T00:33:13;33.17;;;30.70;;
13849;SDS011;6995;52.618;13.488;2023-08-21T00:35:39;33.60;;;30.90;;
13849;SDS011;6995;52.618;13.488;2023-08-21T00:38:05;31.17;;;28.88;;
13849;SDS011;6995;52.618;13.488;2023-08-21T00:40:30;32.03;;;29.60;;
13849;SDS011;6995;52.618;13.488;2023-08-21T00:42:56;33.30;;;30.92;;
13849;SDS011;6995;52.618;13.488;2023-08-21T00:45:22;34.03;;;31.42;;
13849;SDS011;6995;52.618;13.488;2023-08-21T00:47:48;35.67;;;32.97;;
13849;SDS011;6995;52.618;13.488;2023-08-21T00:50:14;36.80;;;33.97;;
13849;SDS011;6995;52.618;13.488;2023-08-21T00:52:40;34.83;;;32.05;;
13849;SDS011;6995;52.618;13.488;2023-08-21T00:55:09;35.58;;;32.80;;
13849;SDS011;6995;52.618;13.488;2023-08-21T00:57:36;35.63;;;33.03;;
13849;SDS011;6995;52.618;13.488;2023-08-21T01:00:03;36.58;;;33.88;;
13849;SDS011;6995;52.618;13.488;2023-08-21T01:02:30;38.15;;;35.35;;
13849;SDS011;6995;52.618;13.488;2023-08-21T01:04:55;37.47;;;34.78;;
13849;SDS011;6995;52.618;13.488;2023-08-21T01:07:21;39.47;;;36.78;;
13849;SDS011;6995;52.618;13.488;2023-08-21T01:09:53;40.28;;;37.25;;
13849;SDS011;6995;52.618;13.488;2023-08-21T01:12:30;37.55;;;35.05;;
13849;SDS011;6995;52.618;13.488;2023-08-21T01:15:15;38.33;;;35.72;;
13849;SDS011;6995;52.618;13.488;2023-08-21T01:17:41;35.92;;;33.38;;
13849;SDS011;6995;52.618;13.488;2023-08-21T01:20:08;37.13;;;34.28;;
13849;SDS011;6995;52.618;13.488;2023-08-21T01:22:35;36.58;;;33.95;;
13849;SDS011;6995;52.618;13.488;2023-08-21T01:25:06;34.80;;;32.33;;
13849;SDS011;6995;52.618;13.488;2023-08-21T01:27:33;34.83;;;32.20;;
13849;SDS011;6995;52.618;13.488;2023-08-21T01:30:00;34.85;;;32.47;;
13849;SDS011;6995;52.618;13.488;2023-08-21T01:32:40;31.83;;;29.50;;
13849;SDS011;6995;52.618;13.488;2023-08-21T01:35:07;33.13;;;30.30;;
13849;SDS011;6995;52.618;13.488;2023-08-21T01:37:35;31.55;;;28.95;;
13849;SDS011;6995;52.618;13.488;2023-08-21T01:40:02;32.63;;;29.90;;
13849;SDS011;6995;52.618;13.488;2023-08-21T01:42:27;32.10;;;29.75;;
13849;SDS011;6995;52.618;13.488;2023-08-21T01:44:53;34.65;;;31.60;;
13849;SDS011;6995;52.618;13.488;2023-08-21T01:47:19;33.05;;;30.38;;
13849;SDS011;6995;52.618;13.488;2023-08-21T01:49:45;32.67;;;30.38;;
13849;SDS011;6995;52.618;13.488;2023-08-21T01:52:10;33.95;;;31.48;;
13849;SDS011;6995;52.618;13.488;2023-08-21T01:54:36;34.60;;;32.15;;
13849;SDS011;6995;52.618;13.488;2023-08-21T01:57:02;34.30;;;31.80;;
13849;SDS011;6995;52.618;13.488;2023-08-21T01:59:28;35.45;;;32.53;;
13849;SDS011;6995;52.618;13.488;2023-08-21T02:01:54;31.90;;;29.50;;
13849;SDS011;6995;52.618;13.488;2023-08-21T02:04:19;31.83;;;29.20;;
13849;SDS011;6995;52.618;13.488;2023-08-21T02:06:45;30.40;;;28.33;;
13849;SDS011;6995;52.618;13.488;2023-08-21T02:09:11;33.85;;;31.02;;
13849;SDS011;6995;52.618;13.488;2023-08-21T02:11:36;33.20;;;30.67;;
13849;SDS011;6995;52.618;13.488;2023-08-21T02:14:02;33.75;;;31.05;;
13849;SDS011;6995;52.618;13.488;2023-08-21T02:16:28;34.63;;;31.90;;
13849;SDS011;6995;52.618;13.488;2023-08-21T02:18:53;33.70;;;31.27;;
13849;SDS011;6995;52.618;13.488;2023-08-21T02:21:20;33.50;;;31.00;;
13849;SDS011;6995;52.618;13.488;2023-08-21T02:23:45;36.90;;;34.25;;
13849;SDS011;6995;52.618;13.488;2023-08-21T02:26:11;35.70;;;33.00;;
13849;SDS011;6995;52.618;13.488;2023-08-21T02:28:36;32.10;;;29.70;;
13849;SDS011;6995;52.618;13.488;2023-08-21T02:31:02;34.00;;;31.50;;
13849;SDS011;6995;52.618;13.488;2023-08-21T02:33:28;32.00;;;29.50;;
13849;SDS011;6995;52.618;13.488;2023-08-21T02:35:53;33.60;;;31.17;;
13849;SDS011;6995;52.618;13.488;2023-08-21T02:38:19;34.50;;;31.73;;
13849;SDS011;6995;52.618;13.488;2023-08-21T02:40:45;33.17;;;30.60;;
13849;SDS011;6995;52.618;13.488;2023-08-21T02:43:12;33.70;;;31.17;;
13849;SDS011;6995;52.618;13.488;2023-08-21T02:45:38;35.30;;;32.80;;
13849;SDS011;6995;52.618;13.488;2023-08-21T02:48:03;33.38;;;30.83;;
13849;SDS011;6995;52.618;13.488;2023-08-21T02:50:29;34.17;;;31.83;;
13849;SDS011;6995;52.618;13.488;2023-08-21T02:52:55;35.03;;;32.70;;
13849;SDS011;6995;52.618;13.488;2023-08-21T02:55:21;34.38;;;31.92;;
13849;SDS011;6995;52.618;13.488;2023-08-21T02:57:47;33.47;;;30.95;;
13849;SDS011;6995;52.618;13.488;2023-08-21T03:00:12;34.03;;;31.52;;
13849;SDS011;6995;52.618;13.488;2023-08-21T03:02:38;35.38;;;32.20;;
13849;SDS011;6995;52.618;13.488;2023-08-21T03:05:08;32.33;;;30.02;;
13849;SDS011;6995;52.618;13.488;2023-08-21T03:07:34;33.22;;;30.90;;
13849;SDS011;6995;52.618;13.488;2023-08-21T03:10:00;32.10;;;29.63;;
13849;SDS011;6995;52.618;13.488;2023-08-21T03:12:27;31.90;;;29.45;;
13849;SDS011;6995;52.618;13.488;2023-08-21T03:14:53;32.63;;;30.38;;
13849;SDS011;6995;52.618;13.488;2023-08-21T03:17:18;31.80;;;29.40;;
13849;SDS011;6995;52.618;13.488;2023-08-21T03:19:44;32.28;;;29.98;;
13849;SDS011;6995;52.618;13.488;2023-08-21T03:22:10;35.88;;;33.05;;
13849;SDS011;6995;52.618;13.488;2023-08-21T03:24:36;32.47;;;30.25;;
13849;SDS011;6995;52.618;13.488;2023-08-21T03:27:01;33.30;;;31.10;;
13849;SDS011;6995;52.618;13.488;2023-08-21T03:29:27;34.95;;;32.38;;
13849;SDS011;6995;52.618;13.488;2023-08-21T03:31:53;33.08;;;30.50;;
13849;SDS011;6995;52.618;13.488;2023-08-21T03:34:21;32.63;;;30.33;;
13849;SDS011;6995;52.618;13.488;2023-08-21T03:36:47;33.13;;;30.73;;
13849;SDS011;6995;52.618;13.488;2023-08-21T03:39:13;32.80;;;30.40;;
13849;SDS011;6995;52.618;13.488;2023-08-21T03:41:38;30.42;;;28.23;;
13849;SDS011;6995;52.618;13.488;2023-08-21T03:44:04;33.55;;;30.83;;
13849;SDS011;6995;52.618;13.488;2023-08-21T03:46:30;32.05;;;29.75;;
13849;SDS011;6995;52.618;13.488;2023-08-21T03:48:56;33.70;;;31.40;;
13849;SDS011;6995;52.618;13.488;2023-08-21T03:51:21;31.02;;;28.63;;
13849;SDS011;6995;52.618;13.488;2023-08-21T03:53:47;31.65;;;29.45;;
13849;SDS011;6995;52.618;13.488;2023-08-21T03:56:14;31.88;;;29.75;;
13849;SDS011;6995;52.618;13.488;2023-08-21T03:58:39;31.20;;;29.00;;
13849;SDS011;6995;52.618;13.488;2023-08-21T04:01:05;31.27;;;29.05;;
13849;SDS011;6995;52.618;13.488;2023-08-21T04:03:31;31.35;;;29.05;;
13849;SDS011;6995;52.618;13.488;2023-08-21T04:05:56;32.53;;;30.30;;
13849;SDS011;6995;52.618;13.488;2023-08-21T04:08:22;33.33;;;30.98;;
13849;SDS011;6995;52.618;13.488;2023-08-21T04:10:48;32.13;;;29.88;;
13849;SDS011;6995;52.618;13.488;2023-08-21T04:13:14;33.45;;;31.02;;
13849;SDS011;6995;52.618;13.488;2023-08-21T04:15:48;36.85;;;34.08;;
13849;SDS011;6995;52.618;13.488;2023-08-21T04:18:14;32.22;;;30.13;;
13849;SDS011;6995;52.618;13.488;2023-08-21T04:20:39;35.13;;;32.28;;
13849;SDS011;6995;52.618;13.488;2023-08-21T04:23:05;35.42;;;32.92;;
13849;SDS011;6995;52.618;13.488;2023-08-21T04:25:31;35.00;;;32.47;;
13849;SDS011;6995;52.618;13.488;2023-08-21T04:27:56;36.33;;;33.65;;
13849;SDS011;6995;52.618;13.488;2023-08-21T04:30:22;33.80;;;31.42;;
13849;SDS011;6995;52.618;13.488;2023-08-21T04:32:47;33.63;;;31.30;;
13849;SDS011;6995;52.618;13.488;2023-08-21T04:35:13;35.20;;;32.90;;
13849;SDS011;6995;52.618;13.488;2023-08-21T04:37:42;35.85;;;33.40;;
13849;SDS011;6995;52.618;13.488;2023-08-21T04:40:10;36.30;;;33.25;;
13849;SDS011;6995;52.618;13.488;2023-08-21T04:42:36;34.75;;;32.53;;
13849;SDS011;6995;52.618;13.488;2023-08-21T04:45:02;32.92;;;30.55;;
13849;SDS011;6995;52.618;13.488;2023-08-21T04:47:27;33.92;;;31.50;;
13849;SDS011;6995;52.618;13.488;2023-08-21T04:49:53;31.35;;;29.02;;
13849;SDS011;6995;52.618;13.488;2023-08-21T04:52:20;30.75;;;28.65;;
13849;SDS011;6995;52.618;13.488;2023-08-21T04:54:47;34.10;;;31.63;;
13849;SDS011;6995;52.618;13.488;2023-08-21T04:57:13;31.08;;;28.73;;
13849;SDS011;6995;52.618;13.488;2023-08-21T04:59:39;31.88;;;29.40;;
13849;SDS011;6995;52.618;13.488;2023-08-21T05:02:05;34.63;;;32.05;;
13849;SDS011;6995;52.618;13.488;2023-08-21T05:07:54;31.75;;;29.45;;
13849;SDS011;6995;52.618;13.488;2023-08-21T05:10:19;33.45;;;31.02;;
13849;SDS011;6995;52.618;13.488;2023-08-21T05:12:45;33.58;;;30.98;;
13849;SDS011;6995;52.618;13.488;2023-08-21T05:15:11;32.38;;;30.23;;
13849;SDS011;6995;52.618;13.488;2023-08-21T05:17:40;33.97;;;31.25;;
13849;SDS011;6995;52.618;13.488;2023-08-21T05:20:06;34.80;;;31.85;;
13849;SDS011;6995;52.618;13.488;2023-08-21T05:22:32;33.67;;;30.77;;
13849;SDS011;6995;52.618;13.488;2023-08-21T05:24:57;30.83;;;28.65;;
13849;SDS011;6995;52.618;13.488;2023-08-21T05:27:23;29.75;;;27.48;;
13849;SDS011;6995;52.618;13.488;2023-08-21T05:29:48;29.88;;;27.45;;
13849;SDS011;6995;52.618;13.488;2023-08-21T05:32:16;31.13;;;28.65;;
13849;SDS011;6995;52.618;13.488;2023-08-21T05:34:42;29.63;;;27.45;;
13849;SDS011;6995;52.618;13.488;2023-08-21T05:37:07;29.40;;;27.10;;
13849;SDS011;6995;52.618;13.488;2023-08-21T05:39:33;31.35;;;29.13;;
13849;SDS011;6995;52.618;13.488;2023-08-21T05:41:59;31.65;;;29.38;;
13849;SDS011;6995;52.618;13.488;2023-08-21T05:44:24;34.13;;;31.38;;
13849;SDS011;6995;52.618;13.488;2023-08-21T05:46:50;34.92;;;32.25;;
13849;SDS011;6995;52.618;13.488;2023-08-21T05:49:15;35.53;;;33.22;;
13849;SDS011;6995;52.618;13.488;2023-08-21T05:51:41;34.58;;;32.38;;
13849;SDS011;6995;52.618;13.488;2023-08-21T05:54:07;36.75;;;33.78;;
13849;SDS011;6995;52.618;13.488;2023-08-21T05:56:32;35.75;;;33.38;;
13849;SDS011;6995;52.618;13.488;2023-08-21T05:58:58;36.90;;;34.50;;
13849;SDS011;6995;52.618;13.488;2023-08-21T06:01:23;37.05;;;34.58;;
13849;SDS011;6995;52.618;13.488;2023-08-21T06:03:49;39.00;;;35.90;;
13849;SDS011;6995;52.618;13.488;2023-08-21T06:06:15;37.00;;;34.53;;
13849;SDS011;6995;52.618;13.488;2023-08-21T06:08:40;37.92;;;35.33;;
13849;SDS011;6995;52.618;13.488;2023-08-21T06:11:06;38.17;;;35.53;;
13849;SDS011;6995;52.618;13.488;2023-08-21T06:13:31;37.65;;;34.75;;
13849;SDS011;6995;52.618;13.488;2023-08-21T06:15:57;35.42;;;33.28;;
13849;SDS011;6995;52.618;13.488;2023-08-21T06:18:23;35.88;;;33.50;;
13849;SDS011;6995;52.618;13.488;2023-08-21T06:20:49;36.72;;;34.45;;
13849;SDS011;6995;52.618;13.488;2023-08-21T06:23:18;40.20;;;37.40;;
13849;SDS011;6995;52.618;13.488;2023-08-21T06:25:47;39.17;;;36.05;;
13849;SDS011;6995;52.618;13.488;2023-08-21T06:28:13;42.22;;;39.28;;
13849;SDS011;6995;52.618;13.488;2023-08-21T06:30:39;42.40;;;39.08;;
13849;SDS011;6995;52.618;13.488;2023-08-21T06:33:04;38.70;;;35.80;;
13849;SDS011;6995;52.618;13.488;2023-08-21T06:35:30;38.58;;;35.63;;
13849;SDS011;6995;52.618;13.488;2023-08-21T06:37:55;40.80;;;37.67;;
13849;SDS011;6995;52.618;13.488;2023-08-21T06:40:21;45.05;;;41.25;;
13849;SDS011;6995;52.618;13.488;2023-08-21T06:42:47;41.30;;;38.35;;
13849;SDS011;6995;52.618;13.488;2023-08-21T06:45:15;39.83;;;37.10;;
13849;SDS011;6995;52.618;13.488;2023-08-21T06:47:42;35.90;;;33.05;;
13849;SDS011;6995;52.618;13.488;2023-08-21T06:50:17;37.90;;;34.88;;
13849;SDS011;6995;52.618;13.488;2023-08-21T06:52:42;35.88;;;33.17;;
13849;SDS011;6995;52.618;13.488;2023-08-21T06:55:08;34.67;;;32.33;;
13849;SDS011;6995;52.618;13.488;2023-08-21T06:57:34;35.17;;;32.75;;
13849;SDS011;6995;52.618;13.488;2023-08-21T06:59:59;38.88;;;35.72;;
13849;SDS011;6995;52.618;13.488;2023-08-21T07:02:25;37.28;;;34.50;;
13849;SDS011;6995;52.618;13.488;2023-08-21T07:04:51;38.13;;;35.40;;
13849;SDS011;6995;52.618;13.488;2023-08-21T07:07:17;39.50;;;36.35;;
13849;SDS011;6995;52.618;13.488;2023-08-21T07:09:42;41.03;;;38.05;;
13849;SDS011;6995;52.618;13.488;2023-08-21T07:12:08;43.13;;;40.05;;
13849;SDS011;6995;52.618;13.488;2023-08-21T07:14:33;43.63;;;40.42;;
13849;SDS011;6995;52.618;13.488;2023-08-21T07:16:59;40.70;;;37.58;;
13849;SDS011;6995;52.618;13.488;2023-08-21T07:19:25;41.63;;;38.28;;
13849;SDS011;6995;52.618;13.488;2023-08-21T07:21:50;38.70;;;35.70;;
13849;SDS011;6995;52.618;13.488;2023-08-21T07:24:19;37.22;;;34.45;;
13849;SDS011;6995;52.618;13.488;2023-08-21T07:26:44;38.15;;;34.88;;
13849;SDS011;6995;52.618;13.488;2023-08-21T07:29:10;34.28;;;31.67;;
13849;SDS011;6995;52.618;13.488;2023-08-21T07:31:40;38.78;;;36.22;;
13849;SDS011;6995;52.618;13.488;2023-08-21T07:34:06;38.63;;;36.00;;
13849;SDS011;6995;52.618;13.488;2023-08-21T07:36:32;34.80;;;32.40;;
13849;SDS011;6995;52.618;13.488;2023-08-21T07:38:58;33.03;;;30.27;;
13849;SDS011;6995;52.618;13.488;2023-08-21T07:41:23;31.67;;;29.38;;
13849;SDS011;6995;52.618;13.488;2023-08-21T07:43:49;30.27;;;28.27;;
13849;SDS011;6995;52.618;13.488;2023-08-21T07:46:14;30.17;;;27.98;;
13849;SDS011;6995;52.618;13.488;2023-08-21T07:48:44;28.67;;;26.75;;
13849;SDS011;6995;52.618;13.488;2023-08-21T07:51:10;24.88;;;22.98;;
13849;SDS011;6995;52.618;13.488;2023-08-21T07:53:36;25.88;;;24.02;;
13849;SDS011;6995;52.618;13.488;2023-08-21T07:56:02;27.02;;;24.95;;
13849;SDS011;6995;52.618;13.488;2023-08-21T07:58:29;26.48;;;24.85;;
13849;SDS011;6995;52.618;13.488;2023-08-21T08:00:55;24.63;;;22.88;;
13849;SDS011;6995;52.618;13.488;2023-08-21T08:03:21;24.15;;;22.33;;
13849;SDS011;6995;52.618;13.488;2023-08-21T08:05:47;24.08;;;22.48;;
13849;SDS011;6995;52.618;13.488;2023-08-21T08:08:12;24.48;;;22.83;;
13849;SDS011;6995;52.618;13.488;2023-08-21T08:10:38;27.23;;;25.58;;
13849;SDS011;6995;52.618;13.488;2023-08-21T08:13:05;26.05;;;24.02;;
13849;SDS011;6995;52.618;13.488;2023-08-21T08:15:30;23.88;;;22.38;;
13849;SDS011;6995;52.618;13.488;2023-08-21T08:17:56;30.52;;;28.38;;
13849;SDS011;6995;52.618;13.488;2023-08-21T08:20:22;28.60;;;26.90;;
13849;SDS011;6995;52.618;13.488;2023-08-21T08:22:48;29.15;;;27.25;;
13849;SDS011;6995;52.618;13.488;2023-08-21T08:25:13;27.42;;;25.73;;
13849;SDS011;6995;52.618;13.488;2023-08-21T08:27:39;27.27;;;25.77;;
13849;SDS011;6995;52.618;13.488;2023-08-21T08:30:05;27.15;;;25.75;;
13849;SDS011;6995;52.618;13.488;2023-08-21T08:32:32;23.38;;;21.83;;
13849;SDS011;6995;52.618;13.488;2023-08-21T08:34:57;26.52;;;24.75;;
13849;SDS011;6995;52.618;13.488;2023-08-21T08:37:23;24.73;;;23.48;;
13849;SDS011;6995;52.618;13.488;2023-08-21T08:39:49;26.73;;;24.95;;
13849;SDS011;6995;52.618;13.488;2023-08-21T08:42:14;23.88;;;22.38;;
13849;SDS011;6995;52.618;13.488;2023-08-21T08:44:41;22.67;;;21.30;;
13849;SDS011;6995;52.618;13.488;2023-08-21T08:47:08;19.45;;;18.25;;
13849;SDS011;6995;52.618;13.488;2023-08-21T08:49:35;20.00;;;18.80;;
13849;SDS011;6995;52.618;13.488;2023-08-21T08:52:01;19.00;;;17.88;;
13849;SDS011;6995;52.618;13.488;2023-08-21T08:54:27;21.02;;;19.73;;
13849;SDS011;6995;52.618;13.488;2023-08-21T08:56:54;20.13;;;18.98;;
13849;SDS011;6995;52.618;13.488;2023-08-21T08:59:19;19.60;;;18.33;;
13849;SDS011;6995;52.618;13.488;2023-08-21T09:01:45;21.17;;;19.75;;
13849;SDS011;6995;52.618;13.488;2023-08-21T09:04:11;22.00;;;20.60;;
13849;SDS011;6995;52.618;13.488;2023-08-21T09:06:37;21.35;;;20.20;;
13849;SDS011;6995;52.618;13.488;2023-08-21T09:09:03;19.20;;;17.70;;
13849;SDS011;6995;52.618;13.488;2023-08-21T09:11:29;19.30;;;18.17;;
13849;SDS011;6995;52.618;13.488;2023-08-21T09:13:55;18.65;;;17.67;;
13849;SDS011;6995;52.618;13.488;2023-08-21T09:16:22;19.73;;;18.67;;
13849;SDS011;6995;52.618;13.488;2023-08-21T09:18:50;20.13;;;19.13;;
13849;SDS011;6995;52.618;13.488;2023-08-21T09:21:18;19.33;;;18.27;;
13849;SDS011;6995;52.618;13.488;2023-08-21T09:23:44;20.33;;;18.98;;
13849;SDS011;6995;52.618;13.488;2023-08-21T09:26:11;19.73;;;18.58;;
13849;SDS011;6995;52.618;13.488;2023-08-21T09:28:47;19.27;;;18.27;;
13849;SDS011;6995;52.618;13.488;2023-08-21T09:31:13;18.17;;;17.08;;
13849;SDS011;6995;52.618;13.488;2023-08-21T09:33:39;18.50;;;17.50;;
13849;SDS011;6995;52.618;13.488;2023-08-21T09:36:06;21.63;;;20.50;;
13849;SDS011;6995;52.618;13.488;2023-08-21T09:38:33;22.55;;;21.25;;
13849;SDS011;6995;52.618;13.488;2023-08-21T09:41:00;20.38;;;19.08;;
13849;SDS011;6995;52.618;13.488;2023-08-21T09:43:25;19.33;;;18.23;;
13849;SDS011;6995;52.618;13.488;2023-08-21T09:45:52;19.83;;;18.48;;
13849;SDS011;6995;52.618;13.488;2023-08-21T09:48:23;19.00;;;17.80;;
13849;SDS011;6995;52.618;13.488;2023-08-21T09:50:52;19.00;;;17.90;;
13849;SDS011;6995;52.618;13.488;2023-08-21T09:53:19;17.50;;;16.60;;
13849;SDS011;6995;52.618;13.488;2023-08-21T09:55:47;19.92;;;18.63;;
13849;SDS011;6995;52.618;13.488;2023-08-21T09:58:16;17.70;;;16.60;;
13849;SDS011;6995;52.618;13.488;2023-08-21T10:00:43;19.10;;;18.10;;
13849;SDS011;6995;52.618;13.488;2023-08-21T10:03:09;18.63;;;17.63;;
13849;SDS011;6995;52.618;13.488;2023-08-21T10:05:37;19.63;;;18.27;;
13849;SDS011;6995;52.618;13.488;2023-08-21T10:08:04;19.75;;;18.65;;
13849;SDS011;6995;52.618;13.488;2023-08-21T10:10:32;17.58;;;16.48;;
13849;SDS011;6995;52.618;13.488;2023-08-21T10:13:02;19.55;;;18.45;;
13849;SDS011;6995;52.618;13.488;2023-08-21T10:15:29;18.55;;;17.42;;
13849;SDS011;6995;52.618;13.488;2023-08-21T10:17:56;20.40;;;19.35;;
13849;SDS011;6995;52.618;13.488;2023-08-21T10:20:24;18.17;;;16.90;;
13849;SDS011;6995;52.618;13.488;2023-08-21T10:22:54;20.42;;;19.20;;
13849;SDS011;6995;52.618;13.488;2023-08-21T10:25:26;18.50;;;17.33;;
13849;SDS011;6995;52.618;13.488;2023-08-21T10:27:52;19.20;;;17.95;;
13849;SDS011;6995;52.618;13.488;2023-08-21T10:30:23;21.25;;;19.95;;
13849;SDS011;6995;52.618;13.488;2023-08-21T10:32:57;18.73;;;17.63;;
13849;SDS011;6995;52.618;13.488;2023-08-21T10:35:29;19.85;;;18.67;;
13849;SDS011;6995;52.618;13.488;2023-08-21T10:38:09;18.73;;;17.65;;
13849;SDS011;6995;52.618;13.488;2023-08-21T10:40:40;18.20;;;16.98;;
13849;SDS011;6995;52.618;13.488;2023-08-21T10:43:45;17.80;;;16.80;;
13849;SDS011;6995;52.618;13.488;2023-08-21T10:46:11;19.52;;;18.15;;
13849;SDS011;6995;52.618;13.488;2023-08-21T10:48:38;19.70;;;18.48;;
13849;SDS011;6995;52.618;13.488;2023-08-21T10:51:05;19.27;;;17.88;;
13849;SDS011;6995;52.618;13.488;2023-08-21T10:53:37;20.65;;;19.23;;
13849;SDS011;6995;52.618;13.488;2023-08-21T10:56:05;19.13;;;18.10;;
13849;SDS011;6995;52.618;13.488;2023-08-21T10:58:43;20.40;;;18.77;;
13849;SDS011;6995;52.618;13.488;2023-08-21T11:01:13;19.67;;;18.40;;
13849;SDS011;6995;52.618;13.488;2023-08-21T11:03:39;21.85;;;20.52;;
13849;SDS011;6995;52.618;13.488;2023-08-21T11:06:05;20.30;;;19.20;;
13849;SDS011;6995;52.618;13.488;2023-08-21T11:08:33;21.30;;;20.08;;
13849;SDS011;6995;52.618;13.488;2023-08-21T11:11:00;23.92;;;22.52;;
13849;SDS011;6995;52.618;13.488;2023-08-21T11:13:26;20.08;;;18.75;;
13849;SDS011;6995;52.618;13.488;2023-08-21T11:21:07;21.10;;;20.10;;
13849;SDS011;6995;52.618;13.488;2023-08-21T11:23:38;22.75;;;21.55;;
13849;SDS011;6995;52.618;13.488;2023-08-21T11:26:05;20.70;;;19.48;;
13849;SDS011;6995;52.618;13.488;2023-08-21T11:28:32;21.33;;;19.95;;
13849;SDS011;6995;52.618;13.488;2023-08-21T11:30:58;19.13;;;18.13;;
13849;SDS011;6995;52.618;13.488;2023-08-21T11:33:27;21.15;;;19.85;;
13849;SDS011;6995;52.618;13.488;2023-08-21T11:35:53;20.05;;;18.95;;
13849;SDS011;6995;52.618;13.488;2023-08-21T11:38:22;18.98;;;17.52;;
13849;SDS011;6995;52.618;13.488;2023-08-21T11:41:02;17.08;;;16.08;;
13849;SDS011;6995;52.618;13.488;2023-08-21T11:43:40;18.30;;;17.08;;
13849;SDS011;6995;52.618;13.488;2023-08-21T11:46:10;21.05;;;19.73;;
13849;SDS011;6995;52.618;13.488;2023-08-21T11:48:36;20.17;;;19.15;;
13849;SDS011;6995;52.618;13.488;2023-08-21T11:51:03;18.77;;;17.70;;
13849;SDS011;6995;52.618;13.488;2023-08-21T11:53:32;18.60;;;17.38;;
13849;SDS011;6995;52.618;13.488;2023-08-21T11:56:00;20.08;;;18.75;;
13849;SDS011;6995;52.618;13.488;2023-08-21T11:58:26;18.63;;;17.55;;
13849;SDS011;6995;52.618;13.488;2023-08-21T12:00:53;20.83;;;19.38;;
13849;SDS011;6995;52.618;13.488;2023-08-21T12:03:19;20.33;;;19.17;;
13849;SDS011;6995;52.618;13.488;2023-08-21T12:05:44;18.50;;;17.40;;
13849;SDS011;6995;52.618;13.488;2023-08-21T12:08:10;21.77;;;20.67;;
13849;SDS011;6995;52.618;13.488;2023-08-21T12:10:36;20.02;;;18.88;;
13849;SDS011;6995;52.618;13.488;2023-08-21T12:13:02;22.40;;;21.02;;
13849;SDS011;6995;52.618;13.488;2023-08-21T12:15:27;23.27;;;21.50;;
13849;SDS011;6995;52.618;13.488;2023-08-21T12:17:53;21.55;;;19.95;;
13849;SDS011;6995;52.618;13.488;2023-08-21T12:20:19;19.77;;;18.42;;
13849;SDS011;6995;52.618;13.488;2023-08-21T12:22:45;18.90;;;17.45;;
13849;SDS011;6995;52.618;13.488;2023-08-21T12:25:10;18.88;;;17.85;;
13849;SDS011;6995;52.618;13.488;2023-08-21T12:27:38;19.90;;;18.60;;
13849;SDS011;6995;52.618;13.488;2023-08-21T12:30:04;21.60;;;20.13;;
13849;SDS011;6995;52.618;13.488;2023-08-21T12:32:30;21.52;;;20.10;;
13849;SDS011;6995;52.618;13.488;2023-08-21T12:34:56;20.08;;;18.85;;
13849;SDS011;6995;52.618;13.488;2023-08-21T12:37:21;17.50;;;16.33;;
13849;SDS011;6995;52.618;13.488;2023-08-21T12:39:47;18.15;;;17.05;;
13849;SDS011;6995;52.618;13.488;2023-08-21T12:42:13;20.60;;;19.30;;
13849;SDS011;6995;52.618;13.488;2023-08-21T12:44:39;23.20;;;21.60;;
13849;SDS011;6995;52.618;13.488;2023-08-21T12:47:05;21.27;;;19.85;;
13849;SDS011;6995;52.618;13.488;2023-08-21T12:49:31;19.00;;;17.67;;
13849;SDS011;6995;52.618;13.488;2023-08-21T12:51:56;19.42;;;18.27;;
13849;SDS011;6995;52.618;13.488;2023-08-21T12:54:28;17.88;;;16.85;;
13849;SDS011;6995;52.618;13.488;2023-08-21T12:56:53;17.70;;;16.60;;
13849;SDS011;6995;52.618;13.488;2023-08-21T12:59:24;18.40;;;16.98;;
13849;SDS011;6995;52.618;13.488;2023-08-21T13:01:50;17.10;;;16.20;;
13849;SDS011;6995;52.618;13.488;2023-08-21T13:04:15;17.92;;;16.83;;
13849;SDS011;6995;52.618;13.488;2023-08-21T13:06:41;23.45;;;22.13;;
13849;SDS011;6995;52.618;13.488;2023-08-21T13:09:14;20.25;;;19.05;;
13849;SDS011;6995;52.618;13.488;2023-08-21T13:11:50;19.20;;;17.92;;
13849;SDS011;6995;52.618;13.488;2023-08-21T13:14:16;20.98;;;19.85;;
13849;SDS011;6995;52.618;13.488;2023-08-21T13:16:41;22.15;;;20.75;;
13849;SDS011;6995;52.618;13.488;2023-08-21T13:19:11;21.42;;;20.23;;
13849;SDS011;6995;52.618;13.488;2023-08-21T13:21:36;18.50;;;17.65;;
13849;SDS011;6995;52.618;13.488;2023-08-21T13:24:02;18.92;;;17.90;;
13849;SDS011;6995;52.618;13.488;2023-08-21T13:26:29;16.33;;;15.25;;
13849;SDS011;6995;52.618;13.488;2023-08-21T13:28:58;19.05;;;18.00;;
13849;SDS011;6995;52.618;13.488;2023-08-21T13:31:24;16.27;;;15.38;;
13849;SDS011;6995;52.618;13.488;2023-08-21T13:33:51;24.50;;;23.30;;
13849;SDS011;6995;52.618;13.488;2023-08-21T13:36:18;22.23;;;20.83;;
13849;SDS011;6995;52.618;13.488;2023-08-21T13:38:45;22.80;;;21.27;;
13849;SDS011;6995;52.618;13.488;2023-08-21T13:41:11;19.10;;;17.90;;
13849;SDS011;6995;52.618;13.488;2023-08-21T13:43:37;19.05;;;17.55;;
13849;SDS011;6995;52.618;13.488;2023-08-21T13:46:03;18.20;;;17.20;;
13849;SDS011;6995;52.618;13.488;2023-08-21T13:49:09;20.55;;;19.25;;
13849;SDS011;6995;52.618;13.488;2023-08-21T13:51:35;19.77;;;18.30;;
13849;SDS011;6995;52.618;13.488;2023-08-21T13:54:04;19.05;;;18.08;;
13849;SDS011;6995;52.618;13.488;2023-08-21T13:56:38;18.13;;;17.13;;
13849;SDS011;6995;52.618;13.488;2023-08-21T13:59:03;18.40;;;17.08;;
13849;SDS011;6995;52.618;13.488;2023-08-21T14:01:35;27.85;;;26.58;;
13849;SDS011;6995;52.618;13.488;2023-08-21T14:04:00;26.77;;;25.33;;
13849;SDS011;6995;52.618;13.488;2023-08-21T14:06:27;19.75;;;18.60;;
13849;SDS011;6995;52.618;13.488;2023-08-21T14:08:54;29.10;;;27.60;;
13849;SDS011;6995;52.618;13.488;2023-08-21T14:11:20;31.67;;;29.35;;
13849;SDS011;6995;52.618;13.488;2023-08-21T14:13:45;18.70;;;17.58;;
13849;SDS011;6995;52.618;13.488;2023-08-21T14:16:11;19.95;;;18.77;;
13849;SDS011;6995;52.618;13.488;2023-08-21T14:18:37;19.00;;;17.45;;
13849;SDS011;6995;52.618;13.488;2023-08-21T14:21:03;29.75;;;28.10;;
13849;SDS011;6995;52.618;13.488;2023-08-21T14:23:29;16.92;;;16.05;;
13849;SDS011;6995;52.618;13.488;2023-08-21T14:25:55;16.65;;;15.68;;
13849;SDS011;6995;52.618;13.488;2023-08-21T14:28:20;17.63;;;16.60;;